Time;durP1;ratioP1;P1;durP2;ratioP2;P2;SDS_P1;SDS_P2;PMS_P1;PMS_P2;Temp;Humidity;BMP_temperature;BMP_pressure;BME280_temperature;BME280_humidity;BME280_pressure;Samples;Min_cycle;Max_cycle;Signal;HPM_P1;HPM_P2
2022/08/26 00:29:09;;;;;;;12.23;10.35;;;;;;;23.70;74.08;95372.38;4770437;29;20330;-87
2022/08/26 00:32:27;;;;;;;11.20;9.63;;;;;;;23.69;74.79;95387.34;4834416;29;20250;-87
2022/08/26 00:38:26;;;;;;;11.57;9.88;;;;;;;23.78;74.18;95374.47;4878897;29;20240;-87
2022/08/26 00:48:21;;;;;;;;;;;;;;;;;;;;;
2022/08/26 00:58:47;;;;;;;;;;;;;;;;;;;;;
2022/08/26 01:22:37;;;;;;;10.60;9.50;;;;;;;23.41;74.68;95378.13;4922082;29;20218;-88
2022/08/26 01:25:15;;;;;;;10.80;9.55;;;;;;;23.39;74.56;95374.97;4937146;29;20206;-88
2022/08/26 01:35:33;;;;;;;10.55;9.38;;;;;;;23.20;75.66;95376.53;4876928;29;20330;-88
2022/08/26 02:29:22;;;;;;;12.20;10.30;;;;;;;22.44;79.74;95378.09;4721735;30;20274;-87
2022/08/26 02:35:28;;;;;;;12.25;9.73;;;;;;;22.53;79.01;95366.84;4920320;28;20204;-86
2022/08/26 02:49:13;;;;;;;12.82;10.38;;;;;;;22.41;78.87;95368.91;4830396;29;20212;-87
2022/08/26 02:52:18;;;;;;;11.15;9.77;;;;;;;22.47;78.82;95369.72;4800810;29;20218;-87
2022/08/26 03:08:39;;;;;;;11.13;10.13;;;;;;;22.44;78.58;95365.78;4772335;29;20777;-86
2022/08/26 03:19:27;;;;;;;11.00;9.93;;;;;;;22.45;78.55;95361.31;4800465;29;20209;-88
2022/08/26 03:38:21;;;;;;;;;;;;;;;;;;;;;
2022/08/26 03:44:46;;;;;;;12.05;10.23;;;;;;;22.73;77.20;95361.66;4919619;29;20206;-87
2022/08/26 03:53:59;;;;;;;14.25;10.85;;;;;;;22.48;78.68;95358.19;4851479;29;20243;-88
2022/08/26 04:14:36;;;;;;;14.52;11.35;;;;;;;22.33;79.09;95353.63;4797535;29;20248;-89
2022/08/26 04:17:39;;;;;;;12.65;11.02;;;;;;;22.41;78.39;95350.53;4757877;30;20988;-87
2022/08/26 04:27:27;;;;;;;13.13;10.52;;;;;;;22.42;77.63;95352.13;4854726;29;20677;-86
2022/08/26 04:30:31;;;;;;;12.77;10.10;;;;;;;22.41;77.77;95347.91;4889912;29;20234;-87
2022/08/26 04:58:44;;;;;;;14.52;11.35;;;;;;;22.64;77.23;95355.34;4973204;28;20301;-88
2022/08/26 05:14:10;;;;;;;13.07;11.15;;;;;;;22.47;79.59;95374.97;4941539;28;20777;-86
2022/08/26 05:20:51;;;;;;;12.57;10.98;;;;;;;22.67;77.85;95380.31;4835221;29;20289;-87
2022/08/26 05:58:37;;;;;;;12.88;11.57;;;;;;;22.67;78.93;95390.81;4831600;29;20216;-88
2022/08/26 06:14:12;;;;;;;14.43;11.77;;;;;;;22.70;78.64;95398.97;4898166;29;20234;-88
2022/08/26 06:20:11;;;;;;;12.82;11.27;;;;;;;22.70;78.59;95398.16;4979549;28;20326;-87
2022/08/26 06:25:57;;;;;;;;;;;;;;;;;;;;;
2022/08/26 06:28:42;;;;;;;14.27;12.45;;;;;;;22.61;78.69;95397.06;4992526;28;20284;-87
2022/08/26 06:34:54;;;;;;;;;;;;;;;;;;;;;
2022/08/26 06:58:26;;;;;;;12.45;9.52;;;;;;;23.31;71.93;95401.75;4917356;29;20207;-87
2022/08/26 07:21:39;;;;;;;11.93;8.23;;;;;;;23.54;68.04;95412.84;4972491;28;20692;-87
2022/08/26 07:50:06;;;;;;;;;;;;;;;;;;;;;
2022/08/26 08:03:10;;;;;;;10.50;9.48;;;;;;;24.04;62.01;95423.38;4937362;23;20234;-82
2022/08/26 08:05:37;;;;;;;10.15;9.18;;;;;;;24.10;62.21;95421.50;4995179;28;20204;-82
2022/08/26 08:08:06;;;;;;;8.50;7.70;;;;;;;24.23;62.30;95417.56;4994635;28;20208;-82
2022/08/26 08:10:35;;;;;;;9.85;7.97;;;;;;;24.30;61.91;95424.13;4992970;28;20243;-83
2022/08/26 08:13:02;;;;;;;9.00;7.45;;;;;;;24.37;61.31;95419.41;5002540;28;20219;-81
2022/08/26 08:15:30;;;;;;;7.63;6.93;;;;;;;24.31;61.82;95423.09;5013713;28;20226;-83
2022/08/26 08:17:57;;;;;;;8.70;7.07;;;;;;;24.35;61.80;95415.44;4994651;28;20730;-82
2022/08/26 08:20:25;;;;;;;8.05;6.75;;;;;;;24.41;61.53;95412.56;4993917;28;20301;-82
2022/08/26 08:22:52;;;;;;;9.02;6.47;;;;;;;24.38;61.11;95410.44;4996057;28;20224;-82
2022/08/26 08:25:19;;;;;;;11.55;7.30;;;;;;;24.47;60.27;95412.53;4992767;28;20635;-82
2022/08/26 08:27:47;;;;;;;8.02;6.85;;;;;;;24.53;60.29;95409.63;4993363;28;20227;-82
2022/08/26 08:30:15;;;;;;;7.10;6.50;;;;;;;24.60;59.66;95411.97;4993410;28;20195;-83
2022/08/26 08:32:43;;;;;;;7.43;6.57;;;;;;;24.60;58.88;95418.03;4993279;28;20242;-83
2022/08/26 08:35:11;;;;;;;7.82;6.38;;;;;;;24.72;58.89;95417.72;4990826;28;20311;-82
2022/08/26 08:37:42;;;;;;;9.57;6.70;;;;;;;24.90;58.64;95416.31;4973511;28;20224;-81
2022/08/26 08:40:11;;;;;;;7.88;7.15;;;;;;;25.05;58.92;95416.28;4974089;28;20210;-82
2022/08/26 08:42:44;;;;;;;8.05;7.22;;;;;;;25.17;58.20;95418.59;4972036;28;20590;-83
2022/08/26 08:45:14;;;;;;;9.48;7.05;;;;;;;25.21;57.92;95412.47;5010785;28;20218;-80
2022/08/26 08:47:46;;;;;;;8.15;7.30;;;;;;;25.22;58.32;95418.53;5012510;28;20232;-81
2022/08/26 08:50:20;;;;;;;10.23;8.43;;;;;;;25.26;57.45;95409.03;5011737;28;20710;-81
2022/08/26 08:52:54;;;;;;;10.45;8.77;;;;;;;25.45;57.69;95408.13;5012642;28;20226;-82
2022/08/26 08:55:22;;;;;;;10.65;8.60;;;;;;;25.77;56.91;95412.94;5011810;28;20234;-82
2022/08/26 08:57:59;;;;;;;10.27;8.40;;;;;;;25.81;55.69;95415.78;5012513;28;20207;-82
2022/08/26 09:00:30;;;;;;;9.48;7.15;;;;;;;25.79;56.50;95408.16;5010846;28;20206;-83
2022/08/26 09:03:00;;;;;;;10.38;7.28;;;;;;;25.92;56.82;95413.88;5013094;28;20226;-82
2022/08/26 09:05:30;;;;;;;11.23;8.38;;;;;;;26.20;56.18;95410.44;5012212;28;20230;-82
2022/08/26 09:08:03;;;;;;;10.00;7.50;;;;;;;26.58;55.08;95411.38;5012923;28;20573;-82
2022/08/26 09:10:35;;;;;;;11.10;7.10;;;;;;;26.84;53.97;95406.59;5011916;28;20313;-81
2022/08/26 09:13:04;;;;;;;10.25;6.88;;;;;;;27.14;53.34;95400.94;5012359;28;20227;-82
2022/08/26 09:15:39;;;;;;;8.48;6.25;;;;;;;27.48;51.85;95400.72;5012773;28;20265;-81
2022/08/26 09:18:16;;;;;;;9.25;7.25;;;;;;;27.77;51.60;95402.41;4992953;28;20206;-82
2022/08/26 09:20:48;;;;;;;8.68;7.30;;;;;;;27.95;50.01;95398.94;4992399;28;20667;-83
2022/08/26 09:23:16;;;;;;;9.27;6.82;;;;;;;28.03;50.32;95398.28;4992526;28;20220;-82
2022/08/26 09:25:48;;;;;;;7.60;6.80;;;;;;;28.26;49.12;95398.47;4992744;28;20235;-82
2022/08/26 09:28:18;;;;;;;9.82;6.78;;;;;;;28.50;49.36;95394.53;4992505;28;20207;-82
2022/08/26 09:30:46;;;;;;;7.20;6.47;;;;;;;28.69;48.27;95397.06;4992971;28;20257;-83
2022/08/26 09:33:17;;;;;;;8.80;6.50;;;;;;;28.97;48.56;95394.44;4993010;28;20258;-82
2022/08/26 09:35:47;;;;;;;8.02;6.43;;;;;;;29.17;47.26;95392.13;4999466;28;20315;-83
2022/08/26 09:38:24;;;;;;;9.40;6.68;;;;;;;29.41;45.81;95391.91;5012602;28;20210;-83
2022/08/26 09:40:57;;;;;;;9.63;6.30;;;;;;;29.47;46.01;95389.91;5011516;28;20234;-82
2022/08/26 09:43:24;;;;;;;6.00;5.03;;;;;;;29.49;45.24;95382.44;5004809;28;20219;-82
2022/08/26 09:45:53;;;;;;;8.82;5.60;;;;;;;29.61;44.51;95376.59;4992034;28;20282;-83
2022/08/26 09:48:31;;;;;;;7.70;5.85;;;;;;;29.58;44.92;95377.97;4992038;28;20241;-82
2022/08/26 09:51:00;;;;;;;6.60;5.22;;;;;;;29.61;45.17;95368.63;4991401;28;20261;-82
2022/08/26 09:53:30;;;;;;;9.43;5.82;;;;;;;29.66;45.05;95365.84;4992734;28;20219;-83
2022/08/26 09:56:16;;;;;;;8.35;5.80;;;;;;;30.02;44.93;95371.84;4992330;28;20250;-83
2022/08/26 09:58:45;;;;;;;7.60;5.28;;;;;;;30.30;43.56;95363.72;4993807;28;20208;-81
2022/08/26 10:01:15;;;;;;;9.55;5.18;;;;;;;30.21;42.38;95356.47;4991939;28;20203;-81
2022/08/26 10:03:43;;;;;;;6.28;4.68;;;;;;;30.29;43.98;95356.84;5000065;28;20226;-83
2022/08/26 10:06:23;;;;;;;8.00;4.93;;;;;;;30.39;42.71;95354.69;5010659;28;20231;-82
2022/08/26 10:08:54;;;;;;;8.60;5.20;;;;;;;30.65;42.53;95348.69;5011702;28;20207;-81
2022/08/26 10:11:29;;;;;;;7.75;4.70;;;;;;;30.84;42.04;95339.34;5011671;28;20211;-82
2022/08/26 10:14:01;;;;;;;7.10;4.75;;;;;;;30.99;41.79;95339.97;5012024;28;20230;-81
2022/08/26 10:16:33;;;;;;;5.90;4.03;;;;;;;30.89;39.77;95333.09;5011073;28;20281;-83
2022/08/26 10:19:06;;;;;;;11.65;5.30;;;;;;;30.79;40.33;95336.81;5011519;28;20202;-82
2022/08/26 10:21:38;;;;;;;7.88;4.90;;;;;;;30.76;40.79;95334.03;5010943;28;20206;-83
2022/08/26 10:24:08;;;;;;;9.60;5.53;;;;;;;30.67;43.29;95326.03;5011828;28;20209;-82
2022/08/26 10:26:43;;;;;;;7.82;6.82;;;;;;;30.67;43.65;95322.59;5005528;28;20226;-82
2022/08/26 10:29:13;;;;;;;9.77;8.77;;;;;;;30.80;43.47;95324.31;4992086;28;20207;-82
2022/08/26 10:31:46;;;;;;;11.15;7.13;;;;;;;30.77;43.17;95323.09;4998535;28;20233;-82
2022/08/26 10:34:13;;;;;;;7.88;6.18;;;;;;;30.75;43.58;95311.19;5011198;28;20198;-82
2022/08/26 10:36:50;;;;;;;9.30;6.00;;;;;;;30.86;43.07;95315.88;4995362;28;20269;-83
2022/08/26 10:39:24;;;;;;;9.82;6.45;;;;;;;31.02;43.10;95307.44;4991497;28;20199;-82
2022/08/26 10:41:55;;;;;;;7.78;5.88;;;;;;;31.21;42.80;95311.38;4992387;28;20724;-82
2022/08/26 10:44:24;;;;;;;9.38;6.13;;;;;;;31.33;42.25;95302.00;5006642;28;20273;-83
2022/08/26 10:46:56;;;;;;;10.48;6.35;;;;;;;31.23;42.08;95300.44;4999484;28;20191;-82
2022/08/26 10:49:22;;;;;;;8.80;6.07;;;;;;;31.08;42.78;95301.66;5004305;28;20641;-83
2022/08/26 10:51:57;;;;;;;7.45;6.32;;;;;;;30.69;43.32;95299.91;5009214;28;21046;-83
2022/08/26 10:54:31;;;;;;;12.55;6.70;;;;;;;30.22;44.30;95299.59;5010652;28;20202;-82
2022/08/26 10:57:04;;;;;;;11.20;7.03;;;;;;;30.04;45.32;95302.50;5010131;28;20226;-83
2022/08/26 10:59:49;;;;;;;11.23;7.05;;;;;;;30.12;44.37;95291.94;5011561;28;20206;-83
2022/08/26 11:02:23;;;;;;;11.30;8.88;;;;;;;30.34;44.74;95295.59;5005104;28;20226;-83
2022/08/26 11:04:55;;;;;;;11.13;7.00;;;;;;;30.12;44.64;95289.28;5010795;28;20234;-83
2022/08/26 11:07:40;;;;;;;7.45;5.97;;;;;;;30.12;44.84;95296.47;5010325;28;20195;-83
2022/08/26 11:10:12;;;;;;;10.32;6.82;;;;;;;30.28;44.52;95291.50;5009671;28;20195;-82
2022/08/26 11:12:57;;;;;;;8.18;6.35;;;;;;;30.02;44.59;95286.13;5008221;28;20870;-83
2022/08/26 11:16:09;;;;;;;10.30;7.03;;;;;;;29.29;45.87;95277.53;5000872;28;20227;-83
2022/08/26 11:18:41;;;;;;;9.07;6.53;;;;;;;29.61;46.12;95276.53;5000185;28;20276;-82
2022/08/26 11:21:44;;;;;;;8.07;6.30;;;;;;;29.74;46.67;95280.19;5010208;28;20198;-82
2022/08/26 11:24:42;;;;;;;7.50;6.72;;;;;;;29.65;46.61;95271.38;5011264;28;20207;-81
2022/08/26 11:27:32;;;;;;;8.40;7.30;;;;;;;29.93;46.30;95274.66;5015627;28;20191;-83
2022/08/26 11:30:01;;;;;;;7.88;6.60;;;;;;;29.85;46.21;95268.97;4990242;28;20715;-82
2022/08/26 11:32:47;;;;;;;9.00;6.70;;;;;;;29.55;45.73;95267.91;4992804;28;20211;-83
2022/08/26 11:35:50;;;;;;;9.60;8.00;;;;;;;29.57;46.16;95262.31;4992287;28;20203;-84
2022/08/26 11:38:22;;;;;;;12.93;8.30;;;;;;;29.80;46.31;95265.69;4996293;28;20226;-83
2022/08/26 11:41:06;;;;;;;7.97;7.07;;;;;;;29.97;45.93;95262.31;5013623;28;20506;-82
2022/08/26 11:43:34;;;;;;;8.07;6.13;;;;;;;30.05;45.18;95258.94;5008263;28;20239;-83
2022/08/26 11:46:05;;;;;;;8.23;6.45;;;;;;;30.03;45.31;95255.81;5014263;28;20633;-82
2022/08/26 11:48:34;;;;;;;9.10;6.47;;;;;;;30.08;43.98;95250.34;5013111;28;20250;-83
2022/08/26 11:51:04;;;;;;;8.48;6.93;;;;;;;30.21;44.97;95252.88;5013024;28;20195;-83
2022/08/26 11:53:32;;;;;;;6.93;6.22;;;;;;;30.12;45.41;95249.44;5013410;28;20645;-82
2022/08/26 11:56:02;;;;;;;8.73;6.57;;;;;;;30.37;44.56;95247.16;5013287;28;20218;-82
2022/08/26 11:58:30;;;;;;;8.05;6.03;;;;;;;30.54;43.83;95245.31;5013811;28;20317;-83
2022/08/26 12:01:01;;;;;;;8.93;6.53;;;;;;;30.78;43.26;95238.78;5013458;28;20567;-83
2022/08/26 12:03:36;;;;;;;11.50;6.60;;;;;;;30.86;42.82;95236.13;5013030;28;20309;-82
2022/08/26 12:06:10;;;;;;;12.25;6.38;;;;;;;30.75;43.20;95234.09;5013515;28;20191;-82
2022/08/26 12:08:42;;;;;;;8.18;5.93;;;;;;;30.71;42.82;95225.97;5013093;28;20714;-83
2022/08/26 12:11:12;;;;;;;8.52;6.18;;;;;;;30.77;42.73;95230.03;5013347;28;20221;-83
2022/08/26 12:13:38;;;;;;;7.57;5.53;;;;;;;30.88;42.43;95230.50;5013365;28;20222;-82
2022/08/26 12:16:06;;;;;;;5.97;4.65;;;;;;;30.95;39.37;95227.38;5013593;28;20230;-83
2022/08/26 12:18:35;;;;;;;6.47;4.07;;;;;;;30.78;38.59;95220.97;5013079;28;20674;-83
2022/08/26 12:21:12;;;;;;;4.63;4.20;;;;;;;30.83;38.35;95222.66;5013623;28;20203;-82
2022/08/26 12:23:44;;;;;;;6.25;4.30;;;;;;;31.07;39.19;95219.53;5013683;28;20226;-82
2022/08/26 12:26:19;;;;;;;7.03;4.28;;;;;;;31.03;37.32;95219.38;5013696;28;20199;-83
2022/08/26 12:28:48;;;;;;;6.93;3.83;;;;;;;31.06;36.33;95215.28;5011503;28;20228;-83
2022/08/26 12:31:32;;;;;;;5.40;3.90;;;;;;;31.23;37.80;95210.75;5004820;28;20203;-83
2022/08/26 12:34:01;;;;;;;6.60;3.80;;;;;;;31.42;37.15;95212.28;5008266;28;20226;-82
2022/08/26 12:36:30;;;;;;;3.80;3.38;;;;;;;31.42;36.17;95201.63;5009651;28;20219;-83
2022/08/26 12:39:05;;;;;;;3.78;3.40;;;;;;;31.43;35.54;95197.88;5006761;28;20737;-83
2022/08/26 12:41:45;;;;;;;4.30;3.80;;;;;;;31.56;35.77;95197.66;5012854;28;20690;-83
2022/08/26 12:44:33;;;;;;;4.38;3.40;;;;;;;31.69;35.30;95197.81;5007342;28;20578;-83
2022/08/26 12:47:08;;;;;;;4.40;3.92;;;;;;;31.74;35.05;95192.31;5008883;28;20199;-83
2022/08/26 12:49:35;;;;;;;4.85;3.70;;;;;;;31.81;34.86;95192.59;5011892;28;20249;-82
2022/08/26 12:52:01;;;;;;;4.00;3.60;;;;;;;31.88;34.84;95193.66;5013180;28;20221;-83
2022/08/26 12:54:57;;;;;;;5.30;3.85;;;;;;;31.77;34.86;95192.44;5013321;28;20209;-83
2022/08/26 12:57:14;;;;;;;5.05;4.18;;;;;;;31.79;35.07;95192.91;5009205;28;20218;-83
2022/08/26 12:59:41;;;;;;;5.03;3.70;;;;;;;31.99;35.91;95179.94;5013311;28;20210;-83
2022/08/26 13:02:09;;;;;;;4.25;3.85;;;;;;;32.15;34.87;95180.94;5012285;28;20241;-83
2022/08/26 13:04:39;;;;;;;6.90;4.28;;;;;;;32.20;35.14;95175.47;5011997;28;20209;-82
2022/08/26 13:07:20;;;;;;;4.75;4.00;;;;;;;32.24;35.01;95171.84;5013632;28;20249;-83
2022/08/26 13:09:46;;;;;;;6.53;4.43;;;;;;;32.22;35.07;95176.72;5012817;28;20214;-83
2022/08/26 13:12:23;;;;;;;6.63;6.03;;;;;;;32.20;34.88;95172.81;5011657;28;20304;-83
2022/08/26 13:14:50;;;;;;;6.47;4.25;;;;;;;32.30;34.98;95169.78;5012260;28;20186;-83
2022/08/26 13:17:18;;;;;;;6.20;4.57;;;;;;;32.42;35.07;95159.16;5011553;28;20310;-82
2022/08/26 13:19:44;;;;;;;5.78;4.40;;;;;;;32.06;34.79;95165.03;5002154;28;20222;-82
2022/08/26 13:22:13;;;;;;;8.20;4.35;;;;;;;31.85;35.41;95165.00;5011110;28;20215;-82
2022/08/26 13:24:41;;;;;;;6.10;4.45;;;;;;;31.35;36.03;95153.47;5011699;28;20265;-82
2022/08/26 13:27:10;;;;;;;5.63;3.95;;;;;;;30.87;36.42;95159.78;5011384;28;20195;-83
2022/08/26 13:29:37;;;;;;;4.90;4.07;;;;;;;30.97;36.69;95156.81;5011002;28;20242;-82
2022/08/26 13:32:05;;;;;;;5.38;4.22;;;;;;;31.21;36.49;95150.97;5009991;28;20703;-83
2022/08/26 13:34:33;;;;;;;5.43;4.35;;;;;;;31.32;36.75;95154.09;5009065;28;20199;-82
2022/08/26 13:36:59;;;;;;;5.85;4.60;;;;;;;31.39;36.83;95151.69;5005143;28;20214;-83
2022/08/26 13:39:26;;;;;;;5.95;4.72;;;;;;;31.24;37.27;95150.34;5010550;28;20238;-83
2022/08/26 13:41:53;;;;;;;6.65;4.78;;;;;;;31.00;37.30;95142.88;5010813;28;20203;-82
2022/08/26 13:44:20;;;;;;;4.75;4.07;;;;;;;30.90;37.47;95151.19;5011585;28;20719;-82
2022/08/26 13:46:47;;;;;;;5.43;4.15;;;;;;;30.90;37.74;95146.66;5009976;28;20203;-82
2022/08/26 13:49:14;;;;;;;6.93;4.75;;;;;;;31.00;37.16;95145.53;5010649;28;20226;-83
2022/08/26 13:51:41;;;;;;;6.65;4.32;;;;;;;30.99;37.06;95145.84;5009266;28;20279;-83
2022/08/26 13:54:08;;;;;;;6.38;4.30;;;;;;;30.97;38.02;95150.72;5010989;28;20203;-82
2022/08/26 13:56:35;;;;;;;6.75;4.20;;;;;;;30.74;38.27;95147.47;5011373;28;20215;-83
2022/08/26 13:59:02;;;;;;;6.63;4.70;;;;;;;30.61;38.54;95149.19;4998313;28;20251;-82
2022/08/26 14:01:30;;;;;;;5.93;4.50;;;;;;;30.86;38.42;95143.06;4997455;28;20219;-83
2022/08/26 14:03:57;;;;;;;4.97;4.18;;;;;;;31.08;38.31;95146.63;5011526;28;20253;-83
2022/08/26 14:06:23;;;;;;;6.20;4.10;;;;;;;31.14;37.02;95135.53;5011562;28;20194;-83
2022/08/26 14:08:51;;;;;;;11.93;4.28;;;;;;;31.28;36.65;95140.63;5010651;28;20245;-82
2022/08/26 14:11:18;;;;;;;5.13;4.60;;;;;;;31.46;37.29;95138.69;5010834;28;20203;-82
2022/08/26 14:13:44;;;;;;;4.80;4.40;;;;;;;31.56;37.73;95138.31;5010735;28;20222;-82
2022/08/26 14:16:16;;;;;;;6.18;4.53;;;;;;;31.53;36.29;95139.75;5010882;28;20227;-82
2022/08/26 14:18:42;;;;;;;6.13;4.10;;;;;;;31.49;37.09;95135.41;5006003;28;21696;-81
2022/08/26 14:21:12;;;;;;;4.75;3.97;;;;;;;31.54;35.90;95141.31;5008520;28;20202;-82
2022/08/26 14:23:38;;;;;;;5.72;4.05;;;;;;;31.69;36.15;95145.34;5011572;28;20225;-82
2022/08/26 14:26:09;;;;;;;4.00;3.33;;;;;;;31.61;34.63;95140.81;5011977;28;20266;-83
2022/08/26 14:28:36;;;;;;;4.57;3.83;;;;;;;31.70;35.75;95136.25;5007083;28;20219;-83
2022/08/26 14:31:03;;;;;;;6.82;4.75;;;;;;;31.76;36.18;95129.63;5011370;28;20198;-82
2022/08/26 14:33:33;;;;;;;4.28;3.90;;;;;;;31.73;36.22;95138.28;5010342;28;20222;-83
2022/08/26 14:38:41;;;;;;;14.60;13.32;;;;;;;31.74;36.06;95133.75;5006549;28;20701;-83
2022/08/26 14:41:09;;;;;;;6.03;5.03;;;;;;;31.72;35.95;95131.41;5010014;28;20199;-82
2022/08/26 14:43:36;;;;;;;7.97;5.75;;;;;;;31.81;35.97;95134.00;5007192;28;20215;-82
2022/08/26 14:46:02;;;;;;;5.53;4.50;;;;;;;31.84;35.78;95130.69;5010674;28;20219;-83
2022/08/26 14:48:28;;;;;;;4.88;4.03;;;;;;;31.85;36.21;95126.94;5010627;28;20681;-83
2022/08/26 14:50:55;;;;;;;6.32;4.60;;;;;;;31.95;35.50;95129.19;5010081;28;20207;-82
2022/08/26 14:56:06;;;;;;;6.05;4.68;;;;;;;31.78;35.53;95122.09;5010528;28;20209;-82
2022/08/26 14:58:33;;;;;;;6.97;3.90;;;;;;;31.71;36.00;95113.09;5005340;28;20253;-82
2022/08/26 15:01:00;;;;;;;6.47;4.22;;;;;;;31.59;36.27;95103.06;5014017;28;20609;-82
2022/08/26 15:03:27;;;;;;;5.65;4.18;;;;;;;31.61;36.20;95106.19;5014315;28;20292;-82
2022/08/26 15:05:53;;;;;;;6.53;4.15;;;;;;;31.71;35.62;95105.88;5014228;28;20248;-82
2022/08/26 15:08:20;;;;;;;6.78;4.32;;;;;;;31.77;36.05;95107.22;5013473;28;20726;-83
2022/08/26 15:10:46;;;;;;;6.93;4.07;;;;;;;31.63;37.11;95105.88;5014062;28;20706;-82
2022/08/26 15:13:13;;;;;;;5.38;4.35;;;;;;;31.58;38.31;95104.19;5013525;28;20218;-83
2022/08/26 15:15:40;;;;;;;11.70;5.85;;;;;;;31.58;39.61;95104.19;5011902;28;20202;-83
2022/08/26 15:18:07;;;;;;;9.70;5.93;;;;;;;31.51;40.83;95102.03;5013662;28;20243;-82
2022/08/26 15:20:34;;;;;;;6.93;5.07;;;;;;;31.44;40.33;95099.09;5014688;28;20521;-82
2022/08/26 15:23:00;;;;;;;8.27;5.90;;;;;;;31.39;40.55;95101.13;5012467;28;20219;-81
2022/08/26 15:25:27;;;;;;;17.17;15.27;;;;;;;31.39;40.91;95101.13;5014082;28;20603;-83
2022/08/26 15:27:53;;;;;;;7.72;5.38;;;;;;;31.40;40.20;95102.69;5013861;28;20253;-82
2022/08/26 15:30:20;;;;;;;8.65;5.80;;;;;;;31.34;39.85;95101.34;5013773;28;20194;-83
2022/08/26 15:32:48;;;;;;;9.40;5.38;;;;;;;31.18;40.32;95096.53;5013710;28;20233;-81
2022/08/26 15:35:14;;;;;;;8.38;5.22;;;;;;;31.08;40.84;95101.41;5012303;28;20230;-82
2022/08/26 15:37:41;;;;;;;8.25;5.70;;;;;;;30.80;41.47;95096.44;5012496;28;20721;-82
2022/08/26 15:40:09;;;;;;;8.68;4.95;;;;;;;30.72;40.51;95097.28;5013156;28;20309;-83
2022/08/26 15:42:36;;;;;;;7.28;5.03;;;;;;;30.69;41.36;95092.59;5004345;28;20261;-82
2022/08/26 15:45:03;;;;;;;7.90;5.47;;;;;;;30.68;40.35;95079.59;5017007;28;20199;-82
2022/08/26 15:47:29;;;;;;;9.20;5.28;;;;;;;30.75;40.88;95087.88;5016661;28;20226;-84
2022/08/26 15:49:57;;;;;;;8.82;5.47;;;;;;;30.81;41.00;95086.59;5016280;28;20199;-86
2022/08/26 15:52:24;;;;;;;6.57;5.43;;;;;;;30.81;40.87;95086.59;5013256;28;20221;-84
2022/08/26 15:54:51;;;;;;;9.48;5.43;;;;;;;30.82;40.65;95090.81;5016565;28;20254;-84
2022/08/26 15:57:18;;;;;;;10.02;5.45;;;;;;;30.72;40.73;95077.88;5016935;28;20234;-83
2022/08/26 15:59:44;;;;;;;8.50;5.60;;;;;;;30.72;40.34;95083.19;5017381;28;20494;-84
2022/08/26 16:02:11;;;;;;;11.57;5.70;;;;;;;30.65;41.69;95078.34;5015357;28;20231;-84
2022/08/26 16:04:37;;;;;;;20.20;16.45;;;;;;;30.46;42.17;95067.25;5016539;28;20250;-84
2022/08/26 16:07:05;;;;;;;10.25;9.27;;;;;;;30.26;42.01;95076.66;5016015;28;20234;-84
2022/08/26 16:09:32;;;;;;;16.95;15.23;;;;;;;30.07;41.63;95073.53;5016478;28;20195;-83
2022/08/26 16:11:58;;;;;;;9.45;7.22;;;;;;;30.14;42.69;95079.16;5018194;28;20195;-84
2022/08/26 16:14:27;;;;;;;8.27;5.18;;;;;;;30.15;42.65;95072.75;5018659;28;20226;-84
2022/08/26 16:16:53;;;;;;;6.15;4.93;;;;;;;30.19;42.70;95066.50;5017731;28;20306;-81
2022/08/26 16:19:20;;;;;;;9.48;6.10;;;;;;;30.20;42.21;95069.94;5017969;28;20198;-81
2022/08/26 16:21:46;;;;;;;7.88;5.68;;;;;;;30.15;42.75;95073.53;5015987;28;20202;-83
2022/08/26 16:24:14;;;;;;;7.10;5.43;;;;;;;30.13;43.72;95075.72;5015397;28;20230;-85
2022/08/26 16:26:42;;;;;;;8.75;5.57;;;;;;;30.14;43.95;95076.50;5016749;28;20231;-82
2022/08/26 16:29:11;;;;;;;9.73;5.43;;;;;;;30.01;44.17;95072.91;5016436;28;20198;-82
2022/08/26 16:31:38;;;;;;;9.80;6.68;;;;;;;29.88;44.95;95079.09;5009528;28;20666;-82
2022/08/26 16:34:05;;;;;;;12.85;8.32;;;;;;;29.81;45.85;95076.16;5015128;28;20443;-84
2022/08/26 16:36:32;;;;;;;10.20;7.35;;;;;;;29.66;46.52;95076.56;5016468;28;20203;-83
2022/08/26 16:38:58;;;;;;;13.32;9.55;;;;;;;29.55;46.58;95084.84;5016316;28;20230;-82
2022/08/26 16:41:29;;;;;;;11.77;7.70;;;;;;;29.40;47.96;95095.09;5017564;28;20191;-82
2022/08/26 16:43:55;;;;;;;10.48;6.80;;;;;;;29.31;47.43;95089.72;5014837;28;20223;-81
2022/08/26 16:46:24;;;;;;;10.70;6.55;;;;;;;29.25;47.82;95084.88;5016529;28;20210;-83
2022/08/26 16:48:51;;;;;;;7.68;6.22;;;;;;;29.20;47.95;95093.75;5015461;28;20227;-83
2022/08/26 16:51:21;;;;;;;10.93;6.47;;;;;;;29.13;48.21;95088.88;5015886;28;20207;-84
2022/08/26 16:53:49;;;;;;;14.43;7.30;;;;;;;29.07;48.80;95092.72;5017761;28;20767;-85
2022/08/26 16:56:18;;;;;;;12.07;6.35;;;;;;;29.12;47.90;95091.81;5016456;28;20693;-84
2022/08/26 16:58:46;;;;;;;10.93;6.65;;;;;;;29.08;48.58;95094.28;5020114;28;20810;-83
2022/08/26 17:01:13;;;;;;;8.10;6.30;;;;;;;29.02;47.85;95100.06;5016334;28;20219;-83
2022/08/26 17:03:39;;;;;;;10.85;6.78;;;;;;;28.92;48.90;95100.31;5016284;28;20641;-81
2022/08/26 17:06:08;;;;;;;11.38;6.68;;;;;;;28.77;49.27;95099.56;5017495;28;20210;-83
2022/08/26 17:08:36;;;;;;;9.60;6.43;;;;;;;28.60;49.30;95094.16;5017630;28;20222;-84
2022/08/26 17:11:02;;;;;;;10.35;6.60;;;;;;;28.44;49.17;95096.41;5015591;28;20198;-81
2022/08/26 17:13:30;;;;;;;10.95;6.63;;;;;;;28.33;49.55;95102.22;5014176;28;20735;-83
2022/08/26 17:15:57;;;;;;;10.85;6.93;;;;;;;28.25;49.99;95097.66;5017138;28;20329;-82
2022/08/26 17:18:26;;;;;;;9.88;7.15;;;;;;;28.19;49.95;95100.41;5015136;28;20234;-82
2022/08/26 17:20:53;;;;;;;7.80;6.53;;;;;;;28.06;50.25;95097.78;5015290;28;20245;-82
2022/08/26 17:23:20;;;;;;;11.70;6.22;;;;;;;28.11;50.08;95100.31;5015931;28;20214;-82
2022/08/26 17:25:47;;;;;;;13.30;6.80;;;;;;;28.00;50.90;95098.97;5015023;28;20195;-83
2022/08/26 17:28:14;;;;;;;8.30;6.75;;;;;;;28.01;50.59;95097.91;5013052;28;20764;-84
2022/08/26 17:30:41;;;;;;;8.65;6.65;;;;;;;27.89;50.87;95097.63;5012796;28;20202;-83
2022/08/26 17:33:09;;;;;;;8.52;6.95;;;;;;;27.81;51.31;95107.06;5013469;28;20223;-83
2022/08/26 17:35:35;;;;;;;10.02;6.75;;;;;;;27.90;50.68;95110.56;5013960;28;20195;-83
2022/08/26 17:38:02;;;;;;;8.85;6.75;;;;;;;27.93;50.75;95107.31;5013503;28;20231;-83
2022/08/26 17:40:30;;;;;;;9.70;6.60;;;;;;;27.96;51.04;95109.38;5013537;28;20203;-84
2022/08/26 17:42:57;;;;;;;12.27;6.43;;;;;;;27.94;51.00;95116.81;5013974;28;20327;-84
2022/08/26 17:45:24;;;;;;;7.80;6.72;;;;;;;27.88;50.52;95120.66;5012841;28;20190;-83
2022/08/26 17:47:51;;;;;;;10.38;6.35;;;;;;;27.94;50.71;95129.28;5013706;28;20248;-83
2022/08/26 17:50:19;;;;;;;11.63;6.47;;;;;;;27.95;50.34;95128.19;5009900;28;20206;-84
2022/08/26 17:52:47;;;;;;;10.88;6.03;;;;;;;27.94;50.10;95132.69;5011813;28;20218;-81
2022/08/26 17:55:17;;;;;;;7.43;6.20;;;;;;;27.91;50.61;95133.28;5013999;28;20203;-83
2022/08/26 17:57:44;;;;;;;9.65;6.30;;;;;;;27.88;51.21;95146.34;5007129;28;20231;-83
2022/08/26 18:00:14;;;;;;;8.43;6.55;;;;;;;27.87;51.50;95145.56;4996396;28;20207;-84
2022/08/26 18:02:41;;;;;;;11.48;6.22;;;;;;;27.84;51.36;95146.16;4998903;28;20218;-84
2022/08/26 18:05:11;;;;;;;10.02;6.47;;;;;;;27.81;51.05;95139.59;5011561;28;20206;-89
2022/08/26 18:08:03;;;;;;;9.52;6.70;;;;;;;27.74;51.16;95141.06;5008117;28;20227;-89
2022/08/26 18:10:30;;;;;;;15.02;7.28;;;;;;;27.66;51.36;95147.06;5009697;28;20813;-84
2022/08/26 18:12:56;;;;;;;11.70;6.50;;;;;;;27.48;52.22;95140.75;5012738;28;20219;-83
2022/08/26 18:15:23;;;;;;;10.32;6.32;;;;;;;27.43;52.50;95146.91;5010109;28;20198;-83
2022/08/26 18:17:49;;;;;;;13.20;6.97;;;;;;;27.36;52.60;95143.88;5011169;28;20230;-82
2022/08/26 18:20:18;;;;;;;13.80;7.47;;;;;;;27.28;53.07;95144.56;5003543;28;20198;-84
2022/08/26 18:22:46;;;;;;;9.45;7.03;;;;;;;27.22;53.09;95137.00;4993874;28;20222;-82
2022/08/26 18:25:15;;;;;;;12.30;7.70;;;;;;;27.17;53.67;95141.31;4994239;28;20206;-82
2022/08/26 18:27:41;;;;;;;9.60;7.70;;;;;;;27.13;53.48;95134.28;4993547;28;20223;-82
2022/08/26 18:30:12;;;;;;;12.15;7.45;;;;;;;27.09;53.26;95144.63;4993518;28;20215;-84
2022/08/26 18:32:38;;;;;;;10.57;7.45;;;;;;;27.04;53.98;95150.00;4993645;28;20223;-83
2022/08/26 18:35:06;;;;;;;11.35;6.75;;;;;;;27.01;53.95;95161.16;4994042;28;20231;-83